SLOA4: Illinois River nr Siloam Springs AR

                                SHEF ID:       SLOA4     Illinois River South of Siloam S
STATION TYPE:

STAGE RIV-FLOW BAT-LOAD
ft cfs volt
Ccp-Rev Ccp-Rev Ccp-Rev
(America/Chicago)
05/01 00:00 4.75 1206 12.46
05/01 01:00 4.73 1193 12.43
05/01 02:00 4.71 1181 12.40
05/01 03:00 4.69 1168 12.37
05/01 04:00 4.65 1142 12.34
05/01 05:00 4.64 1136 12.31
05/01 06:00 4.61 1117 12.29
05/01 07:00 4.59 1105 12.25
05/01 08:00 4.55 1080 12.52
05/01 09:00 4.53 1068 13.41
05/01 10:00 4.51 1056 13.60
05/01 11:00 4.49 1043 13.32
05/01 12:00 4.47 1031 13.17
05/01 13:00 4.47 1031 13.28
05/01 14:00 4.45 1020 13.11
05/01 15:00 4.42 1002 13.07
05/01 16:00 4.40 990 13.13
05/01 17:00 4.39 984 13.03
05/01 18:00 4.37 972 12.90
05/01 19:00 4.33 949 12.86
05/01 20:00 4.32 944 12.85
05/01 21:00 4.31 938 12.66
05/01 22:00 4.29 926 12.53
05/01 23:00 4.28 921 12.48
Data processed at Sat 02May2026 04:18 GMT

NOTICE: If you are parsing this page

Please convert to using our Data API. Starting early 2026 we will be migrating to: https://water.usace.army.mil with modern pages rendered in JavaScript. When this migration completes you will no longer be able to scrape this page! CWMSDataAPI (CDA)

Timeseries IDs (TSIDs)

TSIDs used from left to right in the data table
SILO.Stage.Inst.1Hour.0.Ccp-Rev
SILO.Flow.Inst.1Hour.0.Ccp-Rev
SILO.Volt-Battery Load.Inst.1Hour.0.Ccp-Rev

                            

All information presented herein is the property of the government of the United States of America and may be revised or deleted at any time without prior notice. Dissemination of this information without the expressed written consent of the Public Affairs Office, Tulsa District U.S. Army Corps of Engineers is strictly prohibited. These data are gathered electronically and, as presented, have NOT undergone any form of quality control. These data are NOT guaranteed to be valid or correct.